sensor_id;sensor_type;location;lat;lon;timestamp;P1;durP1;ratioP1;P2;durP2;ratioP2
43646;SDS011;56152;49.996;18.980;2023-05-20T00:00:24;38.95;;;27.10;;
43646;SDS011;56152;49.996;18.980;2023-05-20T00:05:28;44.03;;;28.70;;
43646;SDS011;56152;49.996;18.980;2023-05-20T00:10:30;48.90;;;29.85;;
43646;SDS011;56152;49.996;18.980;2023-05-20T00:15:32;43.53;;;28.63;;
43646;SDS011;56152;49.996;18.980;2023-05-20T00:20:37;40.03;;;26.80;;
43646;SDS011;56152;49.996;18.980;2023-05-20T00:25:39;42.40;;;26.52;;
43646;SDS011;56152;49.996;18.980;2023-05-20T00:30:42;38.33;;;25.13;;
43646;SDS011;56152;49.996;18.980;2023-05-20T00:35:47;36.88;;;24.40;;
43646;SDS011;56152;49.996;18.980;2023-05-20T00:40:49;38.47;;;26.63;;
43646;SDS011;56152;49.996;18.980;2023-05-20T00:45:53;34.92;;;22.92;;
43646;SDS011;56152;49.996;18.980;2023-05-20T00:50:57;45.65;;;29.50;;
43646;SDS011;56152;49.996;18.980;2023-05-20T00:56:06;39.47;;;26.40;;
43646;SDS011;56152;49.996;18.980;2023-05-20T01:01:11;53.17;;;32.63;;
43646;SDS011;56152;49.996;18.980;2023-05-20T01:06:15;51.63;;;28.02;;
43646;SDS011;56152;49.996;18.980;2023-05-20T01:11:18;46.72;;;30.67;;
43646;SDS011;56152;49.996;18.980;2023-05-20T01:16:27;55.85;;;32.83;;
43646;SDS011;56152;49.996;18.980;2023-05-20T01:21:32;52.50;;;30.80;;
43646;SDS011;56152;49.996;18.980;2023-05-20T01:26:37;51.13;;;28.48;;
43646;SDS011;56152;49.996;18.980;2023-05-20T01:31:39;53.33;;;29.10;;
43646;SDS011;56152;49.996;18.980;2023-05-20T01:36:43;58.80;;;34.20;;
43646;SDS011;56152;49.996;18.980;2023-05-20T01:41:48;44.05;;;24.55;;
43646;SDS011;56152;49.996;18.980;2023-05-20T01:46:51;53.45;;;28.38;;
43646;SDS011;56152;49.996;18.980;2023-05-20T01:51:54;50.28;;;27.38;;
43646;SDS011;56152;49.996;18.980;2023-05-20T01:57:00;61.50;;;29.88;;
43646;SDS011;56152;49.996;18.980;2023-05-20T02:02:03;56.28;;;31.33;;
43646;SDS011;56152;49.996;18.980;2023-05-20T02:07:06;58.83;;;32.03;;
43646;SDS011;56152;49.996;18.980;2023-05-20T02:12:11;66.10;;;33.00;;
43646;SDS011;56152;49.996;18.980;2023-05-20T02:17:16;52.70;;;28.42;;
43646;SDS011;56152;49.996;18.980;2023-05-20T02:22:20;66.72;;;32.28;;
43646;SDS011;56152;49.996;18.980;2023-05-20T02:27:24;52.13;;;28.13;;
43646;SDS011;56152;49.996;18.980;2023-05-20T02:32:26;75.60;;;39.95;;
43646;SDS011;56152;49.996;18.980;2023-05-20T02:37:28;65.03;;;32.53;;
43646;SDS011;56152;49.996;18.980;2023-05-20T02:42:32;49.47;;;27.98;;
43646;SDS011;56152;49.996;18.980;2023-05-20T02:47:37;52.22;;;28.63;;
43646;SDS011;56152;49.996;18.980;2023-05-20T02:52:45;49.28;;;23.85;;
43646;SDS011;56152;49.996;18.980;2023-05-20T02:57:50;39.40;;;24.70;;
43646;SDS011;56152;49.996;18.980;2023-05-20T03:02:53;49.63;;;28.50;;
43646;SDS011;56152;49.996;18.980;2023-05-20T03:07:55;50.58;;;29.45;;
43646;SDS011;56152;49.996;18.980;2023-05-20T03:12:59;43.10;;;24.55;;
43646;SDS011;56152;49.996;18.980;2023-05-20T03:18:01;39.38;;;23.65;;
43646;SDS011;56152;49.996;18.980;2023-05-20T03:23:03;34.88;;;21.40;;
43646;SDS011;56152;49.996;18.980;2023-05-20T03:28:09;27.85;;;17.95;;
43646;SDS011;56152;49.996;18.980;2023-05-20T03:33:12;27.08;;;17.20;;
43646;SDS011;56152;49.996;18.980;2023-05-20T03:38:15;29.42;;;18.77;;
43646;SDS011;56152;49.996;18.980;2023-05-20T03:43:19;25.42;;;17.08;;
43646;SDS011;56152;49.996;18.980;2023-05-20T03:48:22;21.65;;;15.73;;
43646;SDS011;56152;49.996;18.980;2023-05-20T03:53:23;21.15;;;13.13;;
43646;SDS011;56152;49.996;18.980;2023-05-20T03:58:27;27.35;;;18.17;;
43646;SDS011;56152;49.996;18.980;2023-05-20T04:03:30;23.20;;;16.17;;
43646;SDS011;56152;49.996;18.980;2023-05-20T04:08:32;23.40;;;15.60;;
43646;SDS011;56152;49.996;18.980;2023-05-20T04:13:39;22.38;;;15.30;;
43646;SDS011;56152;49.996;18.980;2023-05-20T04:18:41;17.27;;;11.65;;
43646;SDS011;56152;49.996;18.980;2023-05-20T04:23:45;16.30;;;12.23;;
43646;SDS011;56152;49.996;18.980;2023-05-20T04:28:49;20.58;;;12.50;;
43646;SDS011;56152;49.996;18.980;2023-05-20T04:33:52;16.88;;;10.45;;
43646;SDS011;56152;49.996;18.980;2023-05-20T04:38:54;14.60;;;10.82;;
43646;SDS011;56152;49.996;18.980;2023-05-20T04:44:00;13.90;;;10.77;;
43646;SDS011;56152;49.996;18.980;2023-05-20T04:49:02;11.43;;;8.93;;
43646;SDS011;56152;49.996;18.980;2023-05-20T04:54:05;11.13;;;8.60;;
43646;SDS011;56152;49.996;18.980;2023-05-20T04:59:08;14.25;;;9.05;;
43646;SDS011;56152;49.996;18.980;2023-05-20T05:04:11;10.13;;;8.80;;
43646;SDS011;56152;49.996;18.980;2023-05-20T05:09:13;13.43;;;9.85;;
43646;SDS011;56152;49.996;18.980;2023-05-20T05:14:23;11.40;;;8.13;;
43646;SDS011;56152;49.996;18.980;2023-05-20T05:19:25;13.45;;;9.65;;
43646;SDS011;56152;49.996;18.980;2023-05-20T05:24:30;16.70;;;10.18;;
43646;SDS011;56152;49.996;18.980;2023-05-20T05:29:33;15.10;;;9.52;;
43646;SDS011;56152;49.996;18.980;2023-05-20T05:34:48;16.80;;;10.68;;
43646;SDS011;56152;49.996;18.980;2023-05-20T05:39:50;17.25;;;11.73;;
43646;SDS011;56152;49.996;18.980;2023-05-20T05:44:55;16.88;;;11.77;;
43646;SDS011;56152;49.996;18.980;2023-05-20T05:49:57;16.15;;;11.27;;
43646;SDS011;56152;49.996;18.980;2023-05-20T05:54:59;18.35;;;11.63;;
43646;SDS011;56152;49.996;18.980;2023-05-20T06:00:04;17.40;;;11.93;;
43646;SDS011;56152;49.996;18.980;2023-05-20T06:05:08;17.33;;;12.77;;
43646;SDS011;56152;49.996;18.980;2023-05-20T06:10:10;19.92;;;13.85;;
43646;SDS011;56152;49.996;18.980;2023-05-20T06:15:14;21.45;;;13.40;;
43646;SDS011;56152;49.996;18.980;2023-05-20T06:20:16;23.60;;;13.52;;
43646;SDS011;56152;49.996;18.980;2023-05-20T06:25:18;18.98;;;13.07;;
43646;SDS011;56152;49.996;18.980;2023-05-20T06:30:25;20.33;;;13.77;;
43646;SDS011;56152;49.996;18.980;2023-05-20T06:35:28;16.75;;;11.45;;
43646;SDS011;56152;49.996;18.980;2023-05-20T06:40:30;16.88;;;12.23;;
43646;SDS011;56152;49.996;18.980;2023-05-20T06:45:33;12.95;;;10.13;;
43646;SDS011;56152;49.996;18.980;2023-05-20T06:50:35;16.55;;;11.77;;
43646;SDS011;56152;49.996;18.980;2023-05-20T06:55:37;17.35;;;12.15;;
43646;SDS011;56152;49.996;18.980;2023-05-20T07:00:46;14.82;;;11.25;;
43646;SDS011;56152;49.996;18.980;2023-05-20T07:05:49;13.57;;;9.82;;
43646;SDS011;56152;49.996;18.980;2023-05-20T07:10:54;17.65;;;11.43;;
43646;SDS011;56152;49.996;18.980;2023-05-20T07:16:04;17.85;;;12.23;;
43646;SDS011;56152;49.996;18.980;2023-05-20T07:21:07;15.10;;;11.68;;
43646;SDS011;56152;49.996;18.980;2023-05-20T07:26:10;15.38;;;11.20;;
43646;SDS011;56152;49.996;18.980;2023-05-20T07:31:15;13.85;;;10.90;;
43646;SDS011;56152;49.996;18.980;2023-05-20T07:36:18;13.90;;;10.93;;
43646;SDS011;56152;49.996;18.980;2023-05-20T07:41:20;14.38;;;10.50;;
43646;SDS011;56152;49.996;18.980;2023-05-20T07:46:24;15.05;;;11.63;;
43646;SDS011;56152;49.996;18.980;2023-05-20T07:51:26;15.55;;;11.30;;
43646;SDS011;56152;49.996;18.980;2023-05-20T07:56:28;18.50;;;10.70;;
43646;SDS011;56152;49.996;18.980;2023-05-20T08:01:35;14.27;;;10.88;;
43646;SDS011;56152;49.996;18.980;2023-05-20T08:06:37;13.32;;;9.48;;
43646;SDS011;56152;49.996;18.980;2023-05-20T08:11:43;17.67;;;11.90;;
43646;SDS011;56152;49.996;18.980;2023-05-20T08:16:47;17.95;;;10.55;;
43646;SDS011;56152;49.996;18.980;2023-05-20T08:21:49;15.35;;;12.43;;
43646;SDS011;56152;49.996;18.980;2023-05-20T08:26:51;19.50;;;12.43;;
43646;SDS011;56152;49.996;18.980;2023-05-20T08:31:54;21.58;;;14.05;;
43646;SDS011;56152;49.996;18.980;2023-05-20T08:36:59;12.68;;;11.30;;
43646;SDS011;56152;49.996;18.980;2023-05-20T08:42:09;16.27;;;12.90;;
43646;SDS011;56152;49.996;18.980;2023-05-20T08:47:17;16.92;;;12.95;;
43646;SDS011;56152;49.996;18.980;2023-05-20T08:52:20;16.25;;;14.40;;
43646;SDS011;56152;49.996;18.980;2023-05-20T08:57:23;15.35;;;13.00;;
43646;SDS011;56152;49.996;18.980;2023-05-20T09:02:28;17.90;;;14.02;;
43646;SDS011;56152;49.996;18.980;2023-05-20T09:07:30;16.55;;;12.30;;
43646;SDS011;56152;49.996;18.980;2023-05-20T09:12:36;17.52;;;13.32;;
43646;SDS011;56152;49.996;18.980;2023-05-20T09:17:40;15.82;;;12.63;;
43646;SDS011;56152;49.996;18.980;2023-05-20T09:22:42;16.90;;;12.05;;
43646;SDS011;56152;49.996;18.980;2023-05-20T09:27:47;22.55;;;14.55;;
43646;SDS011;56152;49.996;18.980;2023-05-20T09:32:55;14.60;;;12.88;;
43646;SDS011;56152;49.996;18.980;2023-05-20T09:38:01;14.18;;;12.68;;
43646;SDS011;56152;49.996;18.980;2023-05-20T09:43:06;18.05;;;12.52;;
43646;SDS011;56152;49.996;18.980;2023-05-20T09:48:12;18.50;;;13.48;;
43646;SDS011;56152;49.996;18.980;2023-05-20T09:53:22;22.40;;;16.83;;
43646;SDS011;56152;49.996;18.980;2023-05-20T09:58:27;20.58;;;15.07;;
43646;SDS011;56152;49.996;18.980;2023-05-20T10:03:32;18.85;;;15.55;;
43646;SDS011;56152;49.996;18.980;2023-05-20T10:08:47;20.58;;;15.82;;
43646;SDS011;56152;49.996;18.980;2023-05-20T10:14:10;17.70;;;15.48;;
43646;SDS011;56152;49.996;18.980;2023-05-20T10:19:28;21.52;;;15.95;;
43646;SDS011;56152;49.996;18.980;2023-05-20T10:24:47;19.20;;;14.63;;
43646;SDS011;56152;49.996;18.980;2023-05-20T10:29:59;19.40;;;14.13;;
43646;SDS011;56152;49.996;18.980;2023-05-20T10:35:07;13.77;;;12.25;;
43646;SDS011;56152;49.996;18.980;2023-05-20T10:40:10;24.92;;;14.85;;
43646;SDS011;56152;49.996;18.980;2023-05-20T10:45:30;18.67;;;15.13;;
43646;SDS011;56152;49.996;18.980;2023-05-20T10:50:39;21.63;;;14.48;;
43646;SDS011;56152;49.996;18.980;2023-05-20T10:55:46;28.42;;;16.35;;
43646;SDS011;56152;49.996;18.980;2023-05-20T11:00:52;27.98;;;17.85;;
43646;SDS011;56152;49.996;18.980;2023-05-20T11:05:57;23.33;;;16.80;;
43646;SDS011;56152;49.996;18.980;2023-05-20T11:10:58;23.13;;;18.33;;
43646;SDS011;56152;49.996;18.980;2023-05-20T11:16:00;26.42;;;19.63;;
43646;SDS011;56152;49.996;18.980;2023-05-20T11:21:06;27.58;;;18.65;;
43646;SDS011;56152;49.996;18.980;2023-05-20T11:26:08;23.38;;;18.00;;
43646;SDS011;56152;49.996;18.980;2023-05-20T11:31:16;27.53;;;21.03;;
43646;SDS011;56152;49.996;18.980;2023-05-20T11:36:20;25.10;;;19.05;;
43646;SDS011;56152;49.996;18.980;2023-05-20T11:41:23;29.58;;;22.38;;
43646;SDS011;56152;49.996;18.980;2023-05-20T11:46:26;25.65;;;19.98;;
43646;SDS011;56152;49.996;18.980;2023-05-20T11:51:33;28.85;;;22.33;;
43646;SDS011;56152;49.996;18.980;2023-05-20T11:56:36;26.13;;;20.77;;
43646;SDS011;56152;49.996;18.980;2023-05-20T12:01:40;30.55;;;22.48;;
43646;SDS011;56152;49.996;18.980;2023-05-20T12:06:44;25.25;;;20.70;;
43646;SDS011;56152;49.996;18.980;2023-05-20T12:11:47;30.50;;;21.35;;
43646;SDS011;56152;49.996;18.980;2023-05-20T12:16:49;27.15;;;18.88;;
43646;SDS011;56152;49.996;18.980;2023-05-20T12:21:54;28.92;;;22.52;;
43646;SDS011;56152;49.996;18.980;2023-05-20T12:26:56;27.73;;;21.23;;
43646;SDS011;56152;49.996;18.980;2023-05-20T12:31:58;23.45;;;17.80;;
43646;SDS011;56152;49.996;18.980;2023-05-20T12:37:01;27.48;;;20.55;;
43646;SDS011;56152;49.996;18.980;2023-05-20T12:42:04;29.33;;;20.98;;
43646;SDS011;56152;49.996;18.980;2023-05-20T12:47:07;24.33;;;19.77;;
43646;SDS011;56152;49.996;18.980;2023-05-20T12:52:10;23.80;;;20.15;;
43646;SDS011;56152;49.996;18.980;2023-05-20T12:57:12;23.25;;;18.92;;
43646;SDS011;56152;49.996;18.980;2023-05-20T13:02:15;26.27;;;20.40;;
43646;SDS011;56152;49.996;18.980;2023-05-20T13:07:21;27.40;;;19.52;;
43646;SDS011;56152;49.996;18.980;2023-05-20T13:12:25;20.00;;;17.02;;
43646;SDS011;56152;49.996;18.980;2023-05-20T13:17:28;21.33;;;18.88;;
43646;SDS011;56152;49.996;18.980;2023-05-20T13:22:36;26.58;;;20.17;;
43646;SDS011;56152;49.996;18.980;2023-05-20T13:27:38;23.27;;;18.73;;
43646;SDS011;56152;49.996;18.980;2023-05-20T13:32:40;25.25;;;18.17;;
43646;SDS011;56152;49.996;18.980;2023-05-20T13:37:43;21.92;;;16.95;;
43646;SDS011;56152;49.996;18.980;2023-05-20T13:42:46;26.25;;;17.70;;
43646;SDS011;56152;49.996;18.980;2023-05-20T13:47:48;21.60;;;17.50;;
43646;SDS011;56152;49.996;18.980;2023-05-20T13:52:53;24.40;;;18.00;;
43646;SDS011;56152;49.996;18.980;2023-05-20T13:57:55;21.30;;;16.60;;
43646;SDS011;56152;49.996;18.980;2023-05-20T14:02:58;26.02;;;16.58;;
43646;SDS011;56152;49.996;18.980;2023-05-20T14:08:05;18.63;;;15.10;;
43646;SDS011;56152;49.996;18.980;2023-05-20T14:13:08;20.92;;;15.63;;
43646;SDS011;56152;49.996;18.980;2023-05-20T14:18:09;16.65;;;13.20;;
43646;SDS011;56152;49.996;18.980;2023-05-20T14:23:13;17.58;;;14.25;;
43646;SDS011;56152;49.996;18.980;2023-05-20T14:28:15;15.15;;;12.57;;
43646;SDS011;56152;49.996;18.980;2023-05-20T14:33:17;16.05;;;13.30;;
43646;SDS011;56152;49.996;18.980;2023-05-20T14:38:21;19.25;;;13.80;;
43646;SDS011;56152;49.996;18.980;2023-05-20T14:43:25;15.57;;;13.45;;
43646;SDS011;56152;49.996;18.980;2023-05-20T14:48:28;16.20;;;12.50;;
43646;SDS011;56152;49.996;18.980;2023-05-20T14:53:34;20.08;;;14.43;;
43646;SDS011;56152;49.996;18.980;2023-05-20T14:58:39;18.85;;;13.75;;
43646;SDS011;56152;49.996;18.980;2023-05-20T15:03:41;17.48;;;14.05;;
43646;SDS011;56152;49.996;18.980;2023-05-20T15:08:47;28.45;;;15.15;;
43646;SDS011;56152;49.996;18.980;2023-05-20T15:13:49;20.13;;;12.45;;
43646;SDS011;56152;49.996;18.980;2023-05-20T15:18:52;15.55;;;13.32;;
43646;SDS011;56152;49.996;18.980;2023-05-20T15:24:05;20.05;;;13.02;;
43646;SDS011;56152;49.996;18.980;2023-05-20T15:29:07;16.02;;;12.35;;
43646;SDS011;56152;49.996;18.980;2023-05-20T15:34:11;19.98;;;13.77;;
43646;SDS011;56152;49.996;18.980;2023-05-20T15:39:18;16.05;;;12.70;;
43646;SDS011;56152;49.996;18.980;2023-05-20T15:44:20;14.85;;;11.93;;
43646;SDS011;56152;49.996;18.980;2023-05-20T15:49:22;19.92;;;13.77;;
43646;SDS011;56152;49.996;18.980;2023-05-20T15:54:27;15.70;;;13.30;;
43646;SDS011;56152;49.996;18.980;2023-05-20T15:59:29;16.80;;;12.38;;
43646;SDS011;56152;49.996;18.980;2023-05-20T16:04:32;19.63;;;13.20;;
43646;SDS011;56152;49.996;18.980;2023-05-20T16:09:35;21.00;;;13.63;;
43646;SDS011;56152;49.996;18.980;2023-05-20T16:14:38;22.60;;;15.60;;
43646;SDS011;56152;49.996;18.980;2023-05-20T16:19:40;24.33;;;17.52;;
43646;SDS011;56152;49.996;18.980;2023-05-20T16:24:44;16.90;;;13.23;;
43646;SDS011;56152;49.996;18.980;2023-05-20T16:29:46;17.70;;;13.05;;
43646;SDS011;56152;49.996;18.980;2023-05-20T16:34:50;31.15;;;20.90;;
43646;SDS011;56152;49.996;18.980;2023-05-20T16:39:55;19.63;;;14.63;;
43646;SDS011;56152;49.996;18.980;2023-05-20T16:44:59;17.20;;;13.63;;
43646;SDS011;56152;49.996;18.980;2023-05-20T16:50:06;22.33;;;13.80;;
43646;SDS011;56152;49.996;18.980;2023-05-20T16:55:11;19.00;;;12.93;;
43646;SDS011;56152;49.996;18.980;2023-05-20T17:00:14;16.80;;;12.57;;
43646;SDS011;56152;49.996;18.980;2023-05-20T17:05:19;17.95;;;12.40;;
43646;SDS011;56152;49.996;18.980;2023-05-20T17:10:24;16.27;;;13.07;;
43646;SDS011;56152;49.996;18.980;2023-05-20T17:15:27;17.48;;;11.05;;
43646;SDS011;56152;49.996;18.980;2023-05-20T17:20:29;13.68;;;9.90;;
43646;SDS011;56152;49.996;18.980;2023-05-20T17:25:33;15.38;;;11.55;;
43646;SDS011;56152;49.996;18.980;2023-05-20T17:30:35;14.50;;;11.85;;
43646;SDS011;56152;49.996;18.980;2023-05-20T17:35:37;16.23;;;12.00;;
43646;SDS011;56152;49.996;18.980;2023-05-20T17:40:42;21.90;;;15.77;;
43646;SDS011;56152;49.996;18.980;2023-05-20T17:45:47;14.88;;;12.60;;
43646;SDS011;56152;49.996;18.980;2023-05-20T17:50:50;14.88;;;11.45;;
43646;SDS011;56152;49.996;18.980;2023-05-20T17:55:59;20.33;;;14.20;;
43646;SDS011;56152;49.996;18.980;2023-05-20T18:01:04;21.05;;;16.27;;
43646;SDS011;56152;49.996;18.980;2023-05-20T18:06:08;18.83;;;13.85;;
43646;SDS011;56152;49.996;18.980;2023-05-20T18:11:23;33.88;;;23.67;;
43646;SDS011;56152;49.996;18.980;2023-05-20T18:16:25;27.73;;;21.13;;
43646;SDS011;56152;49.996;18.980;2023-05-20T18:21:28;36.20;;;23.75;;
43646;SDS011;56152;49.996;18.980;2023-05-20T18:26:41;40.78;;;23.75;;
43646;SDS011;56152;49.996;18.980;2023-05-20T18:31:43;21.88;;;17.70;;
43646;SDS011;56152;49.996;18.980;2023-05-20T18:36:45;44.88;;;33.33;;
43646;SDS011;56152;49.996;18.980;2023-05-20T18:41:56;67.65;;;51.35;;
43646;SDS011;56152;49.996;18.980;2023-05-20T18:47:02;29.75;;;24.30;;
43646;SDS011;56152;49.996;18.980;2023-05-20T18:52:05;37.20;;;30.17;;
43646;SDS011;56152;49.996;18.980;2023-05-20T18:57:10;36.83;;;27.73;;
43646;SDS011;56152;49.996;18.980;2023-05-20T19:12:49;45.70;;;28.58;;
43646;SDS011;56152;49.996;18.980;2023-05-20T19:17:52;37.28;;;23.02;;
43646;SDS011;56152;49.996;18.980;2023-05-20T19:22:55;22.00;;;16.33;;
43646;SDS011;56152;49.996;18.980;2023-05-20T19:28:03;26.90;;;18.73;;
43646;SDS011;56152;49.996;18.980;2023-05-20T19:33:05;21.30;;;15.27;;
43646;SDS011;56152;49.996;18.980;2023-05-20T19:38:09;33.95;;;21.42;;
43646;SDS011;56152;49.996;18.980;2023-05-20T19:43:15;31.17;;;19.95;;
43646;SDS011;56152;49.996;18.980;2023-05-20T19:48:28;25.95;;;17.50;;
43646;SDS011;56152;49.996;18.980;2023-05-20T19:53:32;24.23;;;16.48;;
43646;SDS011;56152;49.996;18.980;2023-05-20T19:58:36;18.02;;;13.77;;
43646;SDS011;56152;49.996;18.980;2023-05-20T20:03:38;16.52;;;12.65;;
43646;SDS011;56152;49.996;18.980;2023-05-20T20:08:41;22.58;;;14.93;;
43646;SDS011;56152;49.996;18.980;2023-05-20T20:13:47;24.55;;;16.50;;
43646;SDS011;56152;49.996;18.980;2023-05-20T20:18:49;22.17;;;14.50;;
43646;SDS011;56152;49.996;18.980;2023-05-20T20:23:51;34.85;;;22.85;;
43646;SDS011;56152;49.996;18.980;2023-05-20T20:28:56;24.23;;;16.83;;
43646;SDS011;56152;49.996;18.980;2023-05-20T20:33:59;21.67;;;12.82;;
43646;SDS011;56152;49.996;18.980;2023-05-20T20:39:01;14.95;;;10.80;;
43646;SDS011;56152;49.996;18.980;2023-05-20T20:44:06;14.57;;;11.48;;
43646;SDS011;56152;49.996;18.980;2023-05-20T20:49:10;15.95;;;11.88;;
43646;SDS011;56152;49.996;18.980;2023-05-20T20:54:12;14.60;;;12.05;;
43646;SDS011;56152;49.996;18.980;2023-05-20T20:59:16;15.07;;;10.00;;
43646;SDS011;56152;49.996;18.980;2023-05-20T21:04:23;15.90;;;10.00;;
43646;SDS011;56152;49.996;18.980;2023-05-20T21:09:26;17.63;;;11.98;;
43646;SDS011;56152;49.996;18.980;2023-05-20T21:14:30;16.27;;;11.80;;
43646;SDS011;56152;49.996;18.980;2023-05-20T21:19:32;13.98;;;10.55;;
43646;SDS011;56152;49.996;18.980;2023-05-20T21:24:34;11.63;;;9.13;;
43646;SDS011;56152;49.996;18.980;2023-05-20T21:29:42;12.45;;;10.38;;
43646;SDS011;56152;49.996;18.980;2023-05-20T21:34:47;16.13;;;11.45;;
43646;SDS011;56152;49.996;18.980;2023-05-20T21:39:51;14.18;;;12.10;;
43646;SDS011;56152;49.996;18.980;2023-05-20T21:44:55;14.95;;;11.48;;
43646;SDS011;56152;49.996;18.980;2023-05-20T21:49:58;12.73;;;11.18;;
43646;SDS011;56152;49.996;18.980;2023-05-20T21:54:59;16.10;;;12.27;;
43646;SDS011;56152;49.996;18.980;2023-05-20T22:00:03;12.93;;;11.52;;
43646;SDS011;56152;49.996;18.980;2023-05-20T22:05:08;13.80;;;11.60;;
43646;SDS011;56152;49.996;18.980;2023-05-20T22:10:12;18.48;;;13.23;;
43646;SDS011;56152;49.996;18.980;2023-05-20T22:15:18;11.10;;;9.48;;
43646;SDS011;56152;49.996;18.980;2023-05-20T22:20:21;14.38;;;12.10;;
43646;SDS011;56152;49.996;18.980;2023-05-20T22:25:24;16.05;;;14.50;;
43646;SDS011;56152;49.996;18.980;2023-05-20T22:30:28;18.55;;;12.77;;
43646;SDS011;56152;49.996;18.980;2023-05-20T22:35:30;22.15;;;14.30;;
43646;SDS011;56152;49.996;18.980;2023-05-20T22:40:32;16.45;;;13.45;;
43646;SDS011;56152;49.996;18.980;2023-05-20T22:45:37;22.63;;;17.27;;
43646;SDS011;56152;49.996;18.980;2023-05-20T22:50:39;21.40;;;14.80;;
43646;SDS011;56152;49.996;18.980;2023-05-20T22:55:43;18.95;;;15.50;;
43646;SDS011;56152;49.996;18.980;2023-05-20T23:00:49;18.65;;;14.32;;
43646;SDS011;56152;49.996;18.980;2023-05-20T23:05:51;19.52;;;15.68;;
43646;SDS011;56152;49.996;18.980;2023-05-20T23:10:58;21.35;;;16.02;;
43646;SDS011;56152;49.996;18.980;2023-05-20T23:16:02;17.38;;;15.23;;
43646;SDS011;56152;49.996;18.980;2023-05-20T23:21:05;19.65;;;15.23;;
43646;SDS011;56152;49.996;18.980;2023-05-20T23:26:07;14.65;;;13.02;;
43646;SDS011;56152;49.996;18.980;2023-05-20T23:31:11;23.13;;;17.30;;
43646;SDS011;56152;49.996;18.980;2023-05-20T23:36:14;20.65;;;16.33;;
43646;SDS011;56152;49.996;18.980;2023-05-20T23:41:16;22.77;;;17.17;;
43646;SDS011;56152;49.996;18.980;2023-05-20T23:46:19;16.42;;;14.15;;
43646;SDS011;56152;49.996;18.980;2023-05-20T23:51:27;19.50;;;15.60;;
43646;SDS011;56152;49.996;18.980;2023-05-20T23:56:30;20.10;;;14.43;;
